createdAt,value
2022-10-09T00:01:06.477Z,101158.53
2022-10-09T00:04:14.378Z,101160.31
2022-10-09T00:07:16.406Z,101160.31
2022-10-09T00:10:18.784Z,101163.88
2022-10-09T00:13:20.807Z,101169.22
2022-10-09T00:16:24.555Z,101183.44
2022-10-09T00:19:26.897Z,101176.31
2022-10-09T00:22:29.283Z,101174.53
2022-10-09T00:25:31.679Z,101176.28
2022-10-09T00:28:38.321Z,101187.84
2022-10-09T00:31:40.764Z,101162.97
2022-10-09T00:34:43.103Z,101175.38
2022-10-09T00:37:45.107Z,101176.31
2022-10-09T00:40:47.373Z,101188.72
2022-10-09T00:43:56.141Z,101211.84
2022-10-09T00:46:58.400Z,101195.81
2022-10-09T00:50:07.316Z,101199.38
2022-10-09T00:53:12.826Z,101195.81
2022-10-09T00:56:14.902Z,101197.59
2022-10-09T00:59:17.974Z,101198.47
2022-10-09T01:02:20.230Z,101202.00
2022-10-09T01:05:29.466Z,101206.44
2022-10-09T01:08:55.961Z,101211.78
2022-10-09T01:12:18.509Z,101209.13
2022-10-09T01:15:46.546Z,101213.56
2022-10-09T01:19:13.825Z,101218.88
2022-10-09T01:22:53.358Z,101224.19
2022-10-09T01:25:58.698Z,101223.25
2022-10-09T01:29:05.519Z,101223.19
2022-10-09T01:32:09.776Z,101214.34
2022-10-09T01:35:12.977Z,101229.47
2022-10-09T01:38:16.166Z,101225.00
2022-10-09T01:41:18.612Z,101224.09
2022-10-09T01:44:27.416Z,101232.13
2022-10-09T01:47:29.419Z,101234.78
2022-10-09T01:50:34.950Z,101240.97
2022-10-09T01:53:36.977Z,101246.28
2022-10-09T01:56:39.664Z,101235.63
2022-10-09T01:59:44.518Z,101240.03
2022-10-09T02:02:47.668Z,101238.22
2022-10-09T02:05:51.716Z,101249.72
2022-10-09T02:08:55.636Z,101256.81
2022-10-09T02:12:01.117Z,101255.97
2022-10-09T02:15:03.490Z,101260.34
2022-10-09T02:18:15.795Z,101266.50
2022-10-09T02:21:23.768Z,101262.91
2022-10-09T02:24:26.007Z,101267.31
2022-10-09T02:27:28.466Z,101270.81
2022-10-09T02:30:37.783Z,101268.19
2022-10-09T02:33:40.083Z,101277.00
2022-10-09T02:36:42.135Z,101287.56
2022-10-09T02:39:44.661Z,101297.34
2022-10-09T02:42:47.139Z,101299.97
2022-10-09T02:45:49.499Z,101311.41
2022-10-09T02:48:51.608Z,101315.72
2022-10-09T02:51:53.748Z,101300.69
2022-10-09T02:54:55.798Z,101308.59
2022-10-09T02:57:58.118Z,101312.03
2022-10-09T03:01:00.391Z,101317.34
2022-10-09T03:04:03.085Z,101315.56
2022-10-09T03:07:05.443Z,101319.94
2022-10-09T03:10:07.921Z,101332.34
2022-10-09T03:13:10.093Z,101339.34
2022-10-09T03:16:15.559Z,101330.44
2022-10-09T03:19:17.715Z,101348.22
2022-10-09T03:22:19.928Z,101356.22
2022-10-09T03:25:21.953Z,101361.50
2022-10-09T03:28:24.282Z,101361.44
2022-10-09T03:34:49.571Z,101367.50
2022-10-09T03:37:51.719Z,101371.91
2022-10-09T03:40:54.044Z,101368.44
2022-10-09T03:43:56.129Z,101364.97
2022-10-09T03:46:58.448Z,101360.50
2022-10-09T03:50:00.486Z,101370.22
2022-10-09T03:53:03.858Z,101382.50
2022-10-09T03:56:06.101Z,101377.19
2022-10-09T03:59:09.677Z,101379.88
2022-10-09T04:02:11.699Z,101375.50
2022-10-09T04:05:14.417Z,101379.84
2022-10-09T04:08:16.434Z,101380.81
2022-10-09T04:11:19.115Z,101387.03
2022-10-09T04:14:21.098Z,101389.69
2022-10-09T04:17:23.278Z,101397.59
2022-10-09T04:20:25.250Z,101399.25
2022-10-09T04:23:28.361Z,101400.97
2022-10-09T04:26:30.351Z,101393.88
2022-10-09T04:29:32.628Z,101402.59
2022-10-09T04:32:34.642Z,101402.50
2022-10-09T04:35:36.881Z,101407.97
2022-10-09T04:38:38.838Z,101414.16
2022-10-09T04:41:41.087Z,101425.75
2022-10-09T04:44:43.084Z,101423.91
2022-10-09T04:47:45.350Z,101424.97
2022-10-09T04:50:47.593Z,101425.84
2022-10-09T04:53:50.092Z,101425.91
2022-10-09T04:56:52.205Z,101432.84
2022-10-09T04:59:54.645Z,101429.34
2022-10-09T05:02:56.674Z,101437.31
2022-10-09T05:06:02.858Z,101445.19
2022-10-09T05:09:04.968Z,101464.56
2022-10-09T05:12:07.355Z,101468.00
2022-10-09T05:15:09.918Z,101474.38
2022-10-09T05:18:12.088Z,101475.28
2022-10-09T05:21:14.972Z,101488.44
2022-10-09T05:24:17.216Z,101491.19
2022-10-09T05:27:19.489Z,101489.41
2022-10-09T05:30:21.692Z,101496.66
2022-10-09T05:33:23.877Z,101499.31
2022-10-09T05:36:26.102Z,101508.13
2022-10-09T05:39:28.139Z,101512.66
2022-10-09T05:42:30.357Z,101514.16
2022-10-09T05:45:32.469Z,101511.59
2022-10-09T05:48:35.405Z,101513.44
2022-10-09T05:51:39.078Z,101522.31
2022-10-09T05:54:42.017Z,101530.41
2022-10-09T05:57:44.273Z,101531.44
2022-10-09T06:00:46.502Z,101541.16
2022-10-09T06:03:50.905Z,101547.44
2022-10-09T06:06:53.105Z,101551.09
2022-10-09T06:09:55.752Z,101552.88
2022-10-09T06:12:57.964Z,101556.31
2022-10-09T06:16:00.418Z,101558.03
2022-10-09T06:19:03.203Z,101566.78
2022-10-09T06:22:05.621Z,101565.94
2022-10-09T06:25:08.377Z,101568.59
2022-10-09T06:28:10.430Z,101579.34
2022-10-09T06:31:15.151Z,101583.94
2022-10-09T06:34:17.542Z,101581.31
2022-10-09T06:37:19.796Z,101591.00
2022-10-09T06:40:22.324Z,101591.75
2022-10-09T06:43:24.508Z,101590.03
2022-10-09T06:46:32.371Z,101597.16
2022-10-09T06:49:34.692Z,101617.38
2022-10-09T06:52:36.901Z,101616.66
2022-10-09T06:55:39.201Z,101615.09
2022-10-09T06:58:41.688Z,101616.03
2022-10-09T07:01:44.149Z,101620.50
2022-10-09T07:04:47.403Z,101627.78
2022-10-09T07:07:49.864Z,101628.50
2022-10-09T07:10:52.298Z,101634.81
2022-10-09T07:13:59.711Z,101636.63
2022-10-09T07:17:02.688Z,101642.72
2022-10-09T07:20:05.373Z,101649.94
2022-10-09T07:23:07.868Z,101645.53
2022-10-09T07:26:22.044Z,101658.03
2022-10-09T07:29:24.123Z,101648.34
2022-10-09T07:32:26.365Z,101649.31
2022-10-09T07:35:28.409Z,101658.34
2022-10-09T07:38:31.051Z,101661.00
2022-10-09T07:41:33.331Z,101657.28
2022-10-09T07:44:35.689Z,101673.03
2022-10-09T07:47:37.791Z,101677.75
2022-10-09T07:50:40.508Z,101681.28
2022-10-09T07:53:44.893Z,101686.72
2022-10-09T07:56:47.273Z,101682.28
2022-10-09T07:59:49.516Z,101692.03
2022-10-09T08:02:52.548Z,101693.91
2022-10-09T08:05:55.988Z,101702.13
2022-10-09T08:09:00.150Z,101695.22
2022-10-09T08:12:02.269Z,101707.53
2022-10-09T08:15:05.080Z,101705.72
2022-10-09T08:18:07.489Z,101661.84
2022-10-09T08:21:13.561Z,101707.63
2022-10-09T08:24:15.862Z,101720.06
2022-10-09T08:27:18.152Z,101716.69
2022-10-09T08:30:20.285Z,101712.28
2022-10-09T08:33:23.533Z,101717.69
2022-10-09T08:36:26.475Z,101726.72
2022-10-09T08:39:31.051Z,101728.59
2022-10-09T08:42:41.471Z,101736.56
2022-10-09T08:45:47.985Z,101727.72
2022-10-09T08:48:50.873Z,101742.94
2022-10-09T08:51:54.501Z,101744.63
2022-10-09T08:54:59.795Z,101731.41
2022-10-09T08:58:06.268Z,101742.16
2022-10-09T09:01:14.587Z,101743.19
2022-10-09T09:04:38.529Z,101750.50
2022-10-09T09:07:40.741Z,101736.25
2022-10-09T09:10:54.489Z,101739.00
2022-10-09T09:14:24.083Z,101742.53
2022-10-09T09:17:38.132Z,101746.81
2022-10-09T09:20:53.572Z,101751.31
2022-10-09T09:23:59.706Z,101745.09
2022-10-09T09:27:04.680Z,101762.00
2022-10-09T09:30:12.909Z,101766.31
2022-10-09T09:33:24.473Z,101754.03
2022-10-09T09:36:51.862Z,101754.97
2022-10-09T09:40:35.092Z,101770.13
2022-10-09T09:43:24.009Z,101768.31
2022-10-09T09:46:29.318Z,101780.75
2022-10-09T09:49:32.069Z,101788.56
2022-10-09T09:52:40.589Z,101786.91
2022-10-09T09:55:42.930Z,101782.50
2022-10-09T09:58:50.326Z,101777.28
2022-10-09T10:02:12.187Z,101788.03
2022-10-09T10:05:26.277Z,101796.72
2022-10-09T10:08:33.117Z,101795.88
2022-10-09T10:11:35.799Z,101794.13
2022-10-09T10:14:38.191Z,101800.13
2022-10-09T10:17:40.188Z,101795.56
2022-10-09T10:20:47.928Z,101802.75
2022-10-09T10:27:15.971Z,101800.19
2022-10-09T10:30:19.590Z,101803.81
2022-10-09T10:33:25.501Z,101796.63
2022-10-09T10:36:28.622Z,101813.66
2022-10-09T10:39:53.021Z,101817.09
2022-10-09T10:43:14.927Z,101817.91
2022-10-09T10:46:28.951Z,101810.75
2022-10-09T10:49:33.859Z,101809.88
2022-10-09T10:53:07.823Z,101814.28
2022-10-09T10:56:27.561Z,101809.22
2022-10-09T10:59:48.703Z,101805.88
2022-10-09T11:03:12.421Z,101805.97
2022-10-09T11:06:23.850Z,101806.84
2022-10-09T11:09:50.617Z,101815.88
2022-10-09T11:12:57.662Z,101816.03
2022-10-09T11:16:37.130Z,101811.53
2022-10-09T11:20:16.707Z,101818.75
2022-10-09T11:23:51.062Z,101812.53
2022-10-09T11:27:14.125Z,101808.03
2022-10-09T11:30:17.991Z,101808.09
2022-10-09T11:33:35.746Z,101815.19
2022-10-09T11:36:42.692Z,101813.53
2022-10-09T11:39:45.343Z,101805.59
2022-10-09T11:42:59.284Z,101802.06
2022-10-09T11:46:05.266Z,101802.03
2022-10-09T11:49:07.289Z,101809.16
2022-10-09T11:52:46.706Z,101793.25
2022-10-09T11:55:48.779Z,101802.19
2022-10-09T11:58:58.652Z,101800.41
2022-10-09T12:02:25.828Z,101795.13
2022-10-09T12:05:47.719Z,101799.63
2022-10-09T12:08:58.943Z,101792.53
2022-10-09T12:12:17.537Z,101795.19
2022-10-09T12:15:57.599Z,101803.19
2022-10-09T12:19:12.417Z,101804.09
2022-10-09T12:22:22.004Z,101806.78
2022-10-09T12:25:28.966Z,101791.63
2022-10-09T12:28:59.917Z,101797.88
2022-10-09T12:32:06.936Z,101797.00
2022-10-09T12:35:29.432Z,101796.09
2022-10-09T12:38:32.270Z,101801.44
2022-10-09T12:41:34.594Z,101804.13
2022-10-09T12:44:40.000Z,101801.44
2022-10-09T12:47:43.730Z,101804.97
2022-10-09T12:50:46.994Z,101810.28
2022-10-09T12:53:51.564Z,101804.94
2022-10-09T12:56:55.697Z,101808.50
2022-10-09T12:59:58.273Z,101810.28
2022-10-09T13:03:01.930Z,101803.16
2022-10-09T13:06:13.519Z,101803.16
2022-10-09T13:09:28.438Z,101808.44
2022-10-09T13:12:31.455Z,101804.00
2022-10-09T13:15:36.414Z,101802.22
2022-10-09T13:18:38.612Z,101804.94
2022-10-09T13:21:40.828Z,101804.97
2022-10-09T13:24:43.005Z,101807.66
2022-10-09T13:27:45.641Z,101801.34
2022-10-09T13:30:47.960Z,101789.78
2022-10-09T13:33:50.953Z,101792.50
2022-10-09T13:36:53.425Z,101786.28
2022-10-09T13:39:58.188Z,101788.94
2022-10-09T13:43:03.015Z,101804.91
2022-10-09T13:46:05.476Z,101797.81
2022-10-09T13:49:07.621Z,101798.72
2022-10-09T13:52:10.146Z,101795.16
2022-10-09T13:55:12.798Z,101808.56
2022-10-09T13:58:15.081Z,101811.22
2022-10-09T14:01:17.457Z,101807.69
2022-10-09T14:04:20.182Z,101806.81
2022-10-09T14:07:22.437Z,101806.81
2022-10-09T14:10:24.866Z,101808.59
2022-10-09T14:13:27.613Z,101805.91
2022-10-09T14:16:30.690Z,101800.56
2022-10-09T14:19:32.947Z,101797.00
2022-10-09T14:22:35.647Z,101802.38
2022-10-09T14:25:37.758Z,101804.13
2022-10-09T14:28:40.328Z,101807.69
2022-10-09T14:31:42.591Z,101810.38
2022-10-09T14:34:44.892Z,101807.66
2022-10-09T14:37:46.962Z,101804.13
2022-10-09T14:40:49.340Z,101803.22
2022-10-09T14:43:57.004Z,101803.22
2022-10-09T14:46:59.343Z,101803.22
2022-10-09T14:50:01.513Z,101805.03
2022-10-09T14:53:03.805Z,101807.66
2022-10-09T14:56:09.614Z,101806.78
2022-10-09T14:59:12.224Z,101805.91
2022-10-09T15:02:18.177Z,101802.28
2022-10-09T15:05:20.426Z,101804.03
2022-10-09T15:08:22.480Z,101803.13
2022-10-09T15:11:24.944Z,101798.59
2022-10-09T15:14:27.107Z,101794.16
2022-10-09T15:17:29.410Z,101799.38
2022-10-09T15:20:31.565Z,101789.59
2022-10-09T15:23:33.954Z,101787.78
2022-10-09T15:26:39.043Z,101805.63
2022-10-09T15:29:41.323Z,101813.66
2022-10-09T15:32:43.590Z,101818.94
2022-10-09T15:35:46.020Z,101818.94
2022-10-09T15:38:48.740Z,101817.94
2022-10-09T15:41:51.116Z,101817.91
2022-10-09T15:44:53.350Z,101815.22
2022-10-09T15:47:55.673Z,101817.84
2022-10-09T15:50:57.738Z,101813.38
2022-10-09T15:54:01.608Z,101811.50
2022-10-09T15:57:03.738Z,101821.25
2022-10-09T16:00:06.809Z,101826.38
2022-10-09T16:03:11.182Z,101832.53
2022-10-09T16:06:30.352Z,101835.94
2022-10-09T16:09:36.339Z,101842.09
2022-10-09T16:12:38.675Z,101839.34
2022-10-09T16:15:45.011Z,101840.03
2022-10-09T16:18:47.860Z,101855.06
2022-10-09T16:21:51.138Z,101859.34
2022-10-09T16:24:54.207Z,101861.81
2022-10-09T16:27:56.509Z,101873.16
2022-10-09T16:30:58.823Z,101873.75
2022-10-09T16:34:05.680Z,101877.19
2022-10-09T16:37:07.953Z,101875.25
2022-10-09T16:40:10.909Z,101872.44
2022-10-09T16:43:13.521Z,101870.47
2022-10-09T16:46:28.748Z,101862.34
2022-10-09T16:49:31.442Z,101857.75
2022-10-09T16:52:33.831Z,101865.50
2022-10-09T16:55:36.344Z,101871.47
2022-10-09T16:58:39.011Z,101868.63
2022-10-09T17:01:45.119Z,101866.59
2022-10-09T17:04:47.296Z,101872.56
2022-10-09T17:07:49.868Z,101869.56
2022-10-09T17:10:52.108Z,101867.72
2022-10-09T17:13:57.804Z,101885.97
2022-10-09T17:16:59.805Z,101884.91
2022-10-09T17:20:02.085Z,101884.72
2022-10-09T17:23:05.050Z,101892.41
2022-10-09T17:26:09.293Z,101889.63
2022-10-09T17:29:12.864Z,101893.00
2022-10-09T17:32:15.126Z,101892.00
2022-10-09T17:35:17.549Z,101894.38
2022-10-09T17:38:19.852Z,101897.66
2022-10-09T17:41:23.978Z,101897.41
2022-10-09T17:44:28.578Z,101904.47
2022-10-09T17:47:30.591Z,101906.94
2022-10-09T17:50:33.235Z,101920.00
2022-10-09T17:53:35.332Z,101907.22
2022-10-09T17:56:38.526Z,101910.50
2022-10-09T17:59:40.829Z,101917.34
2022-10-09T18:02:43.097Z,101926.13
2022-10-09T18:05:48.447Z,101920.72
2022-10-09T18:09:01.345Z,101922.25
2022-10-09T18:12:03.674Z,101915.81
2022-10-09T18:15:06.496Z,101915.50
2022-10-09T18:18:10.151Z,101917.94
2022-10-09T18:21:17.123Z,101916.84
2022-10-09T18:24:19.361Z,101919.38
2022-10-09T18:27:23.913Z,101924.50
2022-10-09T18:30:27.770Z,101925.84
2022-10-09T18:33:30.605Z,101931.06
2022-10-09T18:36:34.345Z,101930.97
2022-10-09T18:39:36.988Z,101932.56
2022-10-09T18:42:40.627Z,101937.69
2022-10-09T18:45:45.599Z,101940.16
2022-10-09T18:48:54.684Z,101939.13
2022-10-09T18:51:59.238Z,101944.03
2022-10-09T18:55:01.638Z,101948.31
2022-10-09T18:58:04.934Z,101941.84
2022-10-09T19:01:07.798Z,101944.53
2022-10-09T19:04:10.450Z,101940.72
2022-10-09T19:07:12.684Z,101948.66
2022-10-09T19:10:15.460Z,101951.97
2022-10-09T19:13:18.076Z,101952.47
2022-10-09T19:16:21.053Z,101960.44
2022-10-09T19:19:23.196Z,101962.16
2022-10-09T19:22:26.173Z,101961.22
2022-10-09T19:25:28.440Z,101966.25
2022-10-09T19:28:32.882Z,101958.22
2022-10-09T19:31:35.757Z,101964.31
2022-10-09T19:34:38.032Z,101965.88
2022-10-09T19:37:40.154Z,101964.00
2022-10-09T19:40:42.723Z,101962.16
2022-10-09T19:43:45.077Z,101966.47
2022-10-09T19:46:48.308Z,101966.06
2022-10-09T19:49:50.585Z,101957.91
2022-10-09T19:52:53.010Z,101961.03
2022-10-09T19:55:55.332Z,101955.63
2022-10-09T19:58:58.545Z,101970.22
2022-10-09T20:02:00.999Z,101979.13
2022-10-09T20:05:04.738Z,101969.22
2022-10-09T20:08:07.775Z,101973.28
2022-10-09T20:11:11.628Z,101981.97
2022-10-09T20:14:13.858Z,101980.97
2022-10-09T20:17:17.360Z,101983.69
2022-10-09T20:20:19.512Z,101986.00
2022-10-09T20:23:22.017Z,101983.88
2022-10-09T20:26:24.580Z,101987.34
2022-10-09T20:29:28.116Z,101989.03
2022-10-09T20:32:31.455Z,101988.75
2022-10-09T20:35:42.054Z,101990.03
2022-10-09T20:38:44.230Z,101990.63
2022-10-09T20:41:46.534Z,101993.91
2022-10-09T20:44:48.624Z,101992.19
2022-10-09T20:47:50.897Z,101996.59
2022-10-09T20:50:53.165Z,101986.75
2022-10-09T20:53:58.506Z,101988.25
2022-10-09T20:57:00.863Z,101990.63
2022-10-09T21:00:04.742Z,101993.25
2022-10-09T21:03:11.622Z,101991.34
2022-10-09T21:06:17.542Z,101992.31
2022-10-09T21:09:19.557Z,101989.53
2022-10-09T21:12:21.782Z,101990.31
2022-10-09T21:15:23.828Z,101991.59
2022-10-09T21:18:26.137Z,101985.31
2022-10-09T21:21:29.117Z,101980.16
2022-10-09T21:24:31.345Z,101977.97
2022-10-09T21:27:33.368Z,101991.88
2022-10-09T21:30:41.421Z,101988.25
2022-10-09T21:33:44.105Z,101986.34
2022-10-09T21:37:16.409Z,101990.66
2022-10-09T21:40:12.505Z,101988.66
2022-10-09T21:43:15.017Z,101994.69
2022-10-09T21:46:17.059Z,101989.72
2022-10-09T21:49:23.160Z,101986.09
2022-10-09T21:52:25.283Z,101986.91
2022-10-09T21:55:27.493Z,101987.75
2022-10-09T21:58:29.565Z,101994.69
2022-10-09T22:01:33.622Z,101991.59
2022-10-09T22:04:35.848Z,101979.50
2022-10-09T22:07:38.317Z,101991.13
2022-10-09T22:10:42.113Z,101989.28
2022-10-09T22:13:44.682Z,101996.75
2022-10-09T22:16:46.726Z,102003.63
2022-10-09T22:19:49.052Z,102008.75
2022-10-09T22:22:51.601Z,102005.97
2022-10-09T22:25:58.885Z,102011.38
2022-10-09T22:29:01.326Z,102008.22
2022-10-09T22:32:03.829Z,102002.41
2022-10-09T22:35:06.264Z,102000.72
2022-10-09T22:38:08.627Z,101995.81
2022-10-09T22:41:18.612Z,101994.13
2022-10-09T22:44:21.006Z,102004.81
2022-10-09T22:47:22.947Z,102008.03
2022-10-09T22:50:25.186Z,102006.06
2022-10-09T22:53:27.126Z,102009.44
2022-10-09T22:56:40.476Z,102011.06
2022-10-09T22:59:42.815Z,102007.91
2022-10-09T23:02:45.070Z,102008.03
2022-10-09T23:05:47.120Z,102007.34
2022-10-09T23:08:49.826Z,102012.72
2022-10-09T23:11:52.222Z,102006.00
2022-10-09T23:14:54.592Z,102015.59
2022-10-09T23:17:56.594Z,102007.69
2022-10-09T23:21:03.346Z,102009.78
2022-10-09T23:24:06.412Z,102000.84
2022-10-09T23:27:08.737Z,102003.81
2022-10-09T23:30:11.204Z,102004.09
2022-10-09T23:33:13.443Z,101999.06
2022-10-09T23:36:18.694Z,102003.28
2022-10-09T23:39:21.098Z,102002.41
2022-10-09T23:42:23.086Z,101995.38
2022-10-09T23:45:25.362Z,101995.88
2022-10-09T23:48:27.974Z,101992.19
2022-10-09T23:51:30.518Z,101994.81
2022-10-09T23:54:32.470Z,101988.56
2022-10-09T23:57:36.956Z,101994.91
